createdAt,value
2019-04-05T00:00:09.316Z,13.32
2019-04-05T00:01:15.532Z,14.15
2019-04-05T00:02:20.344Z,14.03
2019-04-05T00:03:24.805Z,14.03
2019-04-05T00:04:30.341Z,14.87
2019-04-05T00:05:34.872Z,13.10
2019-04-05T00:06:39.336Z,13.72
2019-04-05T00:07:43.843Z,15.15
2019-04-05T00:08:48.306Z,14.75
2019-04-05T00:09:52.788Z,14.30
2019-04-05T00:10:57.620Z,13.65
2019-04-05T00:12:02.095Z,14.20
2019-04-05T00:13:06.649Z,14.75
2019-04-05T00:14:11.720Z,15.32
2019-04-05T00:15:16.330Z,14.43
2019-04-05T00:16:21.257Z,14.38
2019-04-05T00:17:26.038Z,14.70
2019-04-05T00:18:30.508Z,15.13
2019-04-05T00:19:34.968Z,15.32
2019-04-05T00:20:39.483Z,16.27
2019-04-05T00:21:43.921Z,15.88
2019-04-05T00:22:48.702Z,15.08
2019-04-05T00:23:53.561Z,16.37
2019-04-05T00:24:58.028Z,16.65
2019-04-05T00:26:02.891Z,15.65
2019-04-05T00:27:07.376Z,16.37
2019-04-05T00:28:11.856Z,18.25
2019-04-05T00:29:16.326Z,15.60
2019-04-05T00:30:21.028Z,16.30
2019-04-05T00:31:25.669Z,15.55
2019-04-05T00:32:30.149Z,15.63
2019-04-05T00:33:34.616Z,16.67
2019-04-05T00:34:39.085Z,15.50
2019-04-05T00:35:43.628Z,15.95
2019-04-05T00:36:48.098Z,16.45
2019-04-05T00:37:52.583Z,16.45
2019-04-05T00:38:57.049Z,15.95
2019-04-05T00:40:01.799Z,16.30
2019-04-05T00:41:06.265Z,15.50
2019-04-05T00:42:10.736Z,16.48
2019-04-05T00:43:15.605Z,16.07
2019-04-05T00:44:20.075Z,16.00
2019-04-05T00:45:28.530Z,15.88
2019-04-05T00:46:30.713Z,15.93
2019-04-05T00:47:35.247Z,15.48
2019-04-05T00:48:41.036Z,15.23
2019-04-05T00:49:45.789Z,15.98
2019-04-05T00:50:50.252Z,16.20
2019-04-05T00:51:55.183Z,16.07
2019-04-05T00:53:00.011Z,15.80
2019-04-05T00:54:04.616Z,17.02
2019-04-05T00:55:10.459Z,16.30
2019-04-05T00:56:14.924Z,17.45
2019-04-05T00:57:19.391Z,15.68
2019-04-05T00:58:23.887Z,16.12
2019-04-05T00:59:28.732Z,15.63
2019-04-05T01:00:33.195Z,16.50
2019-04-05T01:01:37.727Z,17.23
2019-04-05T01:02:42.189Z,16.20
2019-04-05T01:03:46.976Z,15.88
2019-04-05T01:04:51.447Z,16.97
2019-04-05T01:05:55.984Z,16.85
2019-04-05T01:07:00.454Z,15.65
2019-04-05T01:08:05.336Z,16.25
2019-04-05T01:09:09.865Z,16.50
2019-04-05T01:10:14.472Z,16.62
2019-04-05T01:11:19.376Z,15.95
2019-04-05T01:12:25.496Z,16.27
2019-04-05T01:13:31.778Z,16.00
2019-04-05T01:14:37.181Z,16.73
2019-04-05T01:15:41.647Z,15.68
2019-04-05T01:16:46.548Z,16.27
2019-04-05T01:17:51.090Z,14.83
2019-04-05T01:18:55.908Z,16.07
2019-04-05T01:20:03.189Z,16.73
2019-04-05T01:21:10.701Z,16.15
2019-04-05T01:22:16.705Z,16.62
2019-04-05T01:23:22.151Z,16.35
2019-04-05T01:24:27.147Z,17.17
2019-04-05T01:25:31.774Z,16.95
2019-04-05T01:26:37.509Z,15.78
2019-04-05T01:27:43.151Z,17.45
2019-04-05T01:28:47.695Z,15.95
2019-04-05T01:29:52.164Z,17.42
2019-04-05T01:30:56.924Z,17.55
2019-04-05T01:32:01.709Z,16.90
2019-04-05T01:33:06.633Z,16.15
2019-04-05T01:34:11.166Z,16.57
2019-04-05T01:35:16.017Z,16.75
2019-04-05T01:36:20.460Z,17.52
2019-04-05T01:37:25.749Z,17.12
2019-04-05T01:38:30.303Z,17.57
2019-04-05T01:39:35.054Z,17.15
2019-04-05T01:40:41.426Z,18.27
2019-04-05T01:41:46.226Z,17.52
2019-04-05T01:42:51.136Z,17.77
2019-04-05T01:43:55.628Z,18.45
2019-04-05T01:45:00.786Z,17.98
2019-04-05T01:46:05.696Z,17.40
2019-04-05T01:47:10.156Z,18.80
2019-04-05T01:48:14.615Z,18.70
2019-04-05T01:49:19.111Z,17.95
2019-04-05T01:50:23.971Z,17.73
2019-04-05T01:51:28.433Z,17.42
2019-04-05T01:52:33.095Z,18.92
2019-04-05T01:53:38.005Z,19.45
2019-04-05T01:54:42.534Z,19.23
2019-04-05T01:55:47.000Z,17.90
2019-04-05T01:56:51.467Z,19.20
2019-04-05T01:57:55.922Z,17.95
2019-04-05T01:59:00.408Z,18.60
2019-04-05T02:00:08.224Z,17.75
2019-04-05T02:01:13.169Z,18.70
2019-04-05T02:02:17.706Z,19.20
2019-04-05T02:03:22.177Z,18.20
2019-04-05T02:04:26.673Z,17.95
2019-04-05T02:05:31.206Z,17.73
2019-04-05T02:06:36.356Z,18.35
2019-04-05T02:07:41.256Z,19.35
2019-04-05T02:08:45.872Z,18.40
2019-04-05T02:09:50.470Z,18.50
2019-04-05T02:10:55.500Z,17.57
2019-04-05T02:12:00.039Z,18.37
2019-04-05T02:13:04.959Z,18.30
2019-04-05T02:14:09.631Z,19.32
2019-04-05T02:15:22.825Z,18.62
2019-04-05T02:16:27.614Z,18.23
2019-04-05T02:17:32.530Z,18.73
2019-04-05T02:18:38.037Z,17.85
2019-04-05T02:19:42.520Z,18.82
2019-04-05T02:20:47.046Z,19.52
2019-04-05T02:21:51.576Z,18.10
2019-04-05T02:22:57.079Z,18.95
2019-04-05T02:24:01.626Z,18.70
2019-04-05T02:25:07.323Z,17.90
2019-04-05T02:26:11.786Z,18.15
2019-04-05T02:27:16.613Z,18.80
2019-04-05T02:28:21.153Z,18.32
2019-04-05T02:29:25.641Z,18.07
2019-04-05T02:30:30.169Z,19.48
2019-04-05T02:31:34.630Z,19.02
2019-04-05T02:32:39.084Z,19.00
2019-04-05T02:33:44.006Z,19.15
2019-04-05T02:34:48.566Z,19.02
2019-04-05T02:35:53.015Z,19.75
2019-04-05T02:36:57.484Z,19.02
2019-04-05T02:38:01.942Z,18.87
2019-04-05T02:39:07.976Z,18.52
2019-04-05T02:40:15.406Z,18.85
2019-04-05T02:41:22.227Z,18.07
2019-04-05T02:42:27.125Z,18.73
2019-04-05T02:43:33.827Z,19.32
2019-04-05T02:44:39.539Z,18.75
2019-04-05T02:45:45.709Z,18.80
2019-04-05T02:46:51.938Z,18.80
2019-04-05T02:47:59.779Z,18.67
2019-04-05T02:49:05.778Z,19.42
2019-04-05T02:50:11.264Z,18.87
2019-04-05T02:51:19.744Z,19.40
2019-04-05T02:52:25.067Z,19.62
2019-04-05T02:53:31.472Z,18.57
2019-04-05T02:54:36.804Z,19.07
2019-04-05T02:55:43.146Z,19.48
2019-04-05T02:56:48.434Z,20.00
2019-04-05T02:57:55.303Z,18.70
2019-04-05T02:59:01.614Z,19.55
2019-04-05T03:00:06.236Z,19.60
2019-04-05T03:01:11.165Z,19.00
2019-04-05T03:02:16.568Z,19.12
2019-04-05T03:03:21.688Z,20.45
2019-04-05T03:04:26.579Z,19.17
2019-04-05T03:05:31.998Z,19.07
2019-04-05T03:06:37.073Z,18.87
2019-04-05T03:07:41.599Z,19.57
2019-04-05T03:08:46.853Z,19.10
2019-04-05T03:09:51.870Z,18.65
2019-04-05T03:11:02.137Z,19.35
2019-04-05T03:12:07.153Z,18.90
2019-04-05T03:13:11.605Z,20.15
2019-04-05T03:14:16.965Z,19.40
2019-04-05T03:15:21.453Z,18.95
2019-04-05T03:16:40.361Z,18.40
2019-04-05T03:17:37.834Z,18.52
2019-04-05T03:18:45.355Z,20.25
2019-04-05T03:19:52.668Z,19.73
2019-04-05T03:21:00.191Z,18.25
2019-04-05T03:22:07.130Z,19.05
2019-04-05T03:23:12.015Z,18.70
2019-04-05T03:24:19.524Z,19.65
2019-04-05T03:25:25.041Z,20.52
2019-04-05T03:26:32.854Z,19.37
2019-04-05T03:27:39.688Z,18.75
2019-04-05T03:28:47.189Z,18.90
2019-04-05T03:29:52.401Z,19.07
2019-04-05T03:30:57.465Z,19.40
2019-04-05T03:32:02.127Z,18.77
2019-04-05T03:33:07.211Z,18.62
2019-04-05T03:34:12.972Z,20.12
2019-04-05T03:35:18.560Z,18.77
2019-04-05T03:36:23.785Z,20.32
2019-04-05T03:37:29.193Z,19.95
2019-04-05T03:38:33.975Z,18.87
2019-04-05T03:39:39.024Z,20.97
2019-04-05T03:40:44.283Z,19.55
2019-04-05T03:41:49.455Z,20.20
2019-04-05T03:42:54.201Z,19.55
2019-04-05T03:43:58.929Z,20.05
2019-04-05T03:45:03.781Z,20.27
2019-04-05T03:46:09.074Z,20.35
2019-04-05T03:47:13.541Z,20.95
2019-04-05T03:48:18.259Z,21.15
2019-04-05T03:49:23.427Z,20.57
2019-04-05T03:50:27.990Z,20.35
2019-04-05T03:51:34.093Z,21.27
2019-04-05T03:52:39.493Z,20.25
2019-04-05T03:53:44.059Z,21.23
2019-04-05T03:54:49.256Z,22.00
2019-04-05T03:55:55.331Z,21.23
2019-04-05T03:57:00.399Z,21.75
2019-04-05T03:58:05.780Z,20.68
2019-04-05T03:59:10.447Z,21.97
2019-04-05T04:00:15.421Z,22.37
2019-04-05T04:01:20.107Z,22.42
2019-04-05T04:02:25.964Z,22.07
2019-04-05T04:03:31.416Z,22.58
2019-04-05T04:04:36.109Z,21.97
2019-04-05T04:05:40.804Z,22.52
2019-04-05T04:06:45.893Z,22.30
2019-04-05T04:07:50.359Z,22.32
2019-04-05T04:08:55.001Z,22.27
2019-04-05T04:09:59.557Z,23.40
2019-04-05T04:11:04.995Z,22.42
2019-04-05T04:12:09.714Z,24.00
2019-04-05T04:13:14.461Z,23.47
2019-04-05T04:14:20.804Z,24.05
2019-04-05T04:15:26.209Z,24.15
2019-04-05T04:16:31.064Z,24.20
2019-04-05T04:17:35.664Z,24.07
2019-04-05T04:18:41.058Z,23.73
2019-04-05T04:19:45.844Z,22.93
2019-04-05T04:20:53.521Z,24.32
2019-04-05T04:22:16.071Z,22.62
2019-04-05T04:23:23.130Z,22.73
2019-04-05T04:24:27.753Z,23.15
2019-04-05T04:25:32.977Z,23.65
2019-04-05T04:26:37.896Z,23.60
2019-04-05T04:27:42.351Z,24.00
2019-04-05T04:28:46.880Z,24.95
2019-04-05T04:29:52.207Z,23.52
2019-04-05T04:30:56.836Z,22.52
2019-04-05T04:32:01.492Z,23.25
2019-04-05T04:33:07.667Z,23.60
2019-04-05T04:34:12.789Z,23.07
2019-04-05T04:35:17.413Z,24.50
2019-04-05T04:36:22.419Z,23.10
2019-04-05T04:37:26.878Z,24.45
2019-04-05T04:38:32.487Z,23.98
2019-04-05T04:39:37.706Z,23.80
2019-04-05T04:40:42.635Z,23.83
2019-04-05T04:41:47.179Z,24.07
2019-04-05T04:42:52.011Z,23.92
2019-04-05T04:43:56.609Z,32.65
2019-04-05T04:45:11.806Z,29.95
2019-04-05T04:46:08.369Z,24.82
2019-04-05T04:47:25.400Z,27.42
2019-04-05T04:48:19.441Z,25.60
2019-04-05T04:49:24.371Z,25.80
2019-04-05T04:50:29.536Z,26.00
2019-04-05T04:51:35.062Z,25.40
2019-04-05T04:52:39.957Z,24.85
2019-04-05T04:53:44.947Z,25.40
2019-04-05T04:54:49.751Z,24.45
2019-04-05T04:55:54.207Z,25.50
2019-04-05T04:57:00.238Z,25.70
2019-04-05T04:58:04.956Z,24.87
2019-04-05T04:59:09.480Z,25.43
2019-04-05T05:00:14.609Z,24.92
2019-04-05T05:01:19.567Z,26.80
2019-04-05T05:02:24.130Z,24.82
2019-04-05T05:03:29.069Z,26.48
2019-04-05T05:04:33.751Z,25.00
2019-04-05T05:05:38.546Z,24.10
2019-04-05T05:06:43.485Z,25.10
2019-04-05T05:07:48.410Z,24.85
2019-04-05T05:08:52.939Z,26.00
2019-04-05T05:09:57.939Z,24.85
2019-04-05T05:11:13.939Z,24.07
2019-04-05T05:12:09.175Z,25.00
2019-04-05T05:13:13.703Z,25.95
2019-04-05T05:14:18.330Z,24.87
2019-04-05T05:15:23.127Z,25.80
2019-04-05T05:16:27.889Z,24.75
2019-04-05T05:17:38.323Z,25.52
2019-04-05T05:18:39.507Z,26.17
2019-04-05T05:19:44.201Z,25.57
2019-04-05T05:20:49.047Z,25.10
2019-04-05T05:21:53.638Z,25.95
2019-04-05T05:22:58.395Z,25.02
2019-04-05T05:24:03.029Z,25.30
2019-04-05T05:25:08.019Z,25.92
2019-04-05T05:26:12.885Z,24.40
2019-04-05T05:27:17.429Z,25.75
2019-04-05T05:28:22.123Z,24.87
2019-04-05T05:29:26.720Z,24.25
2019-04-05T05:30:31.442Z,24.60
2019-04-05T05:31:35.900Z,25.35
2019-04-05T05:32:40.670Z,25.15
2019-04-05T05:33:45.288Z,25.75
2019-04-05T05:35:01.317Z,24.07
2019-04-05T05:35:57.041Z,24.50
2019-04-05T05:37:01.880Z,24.20
2019-04-05T05:38:07.504Z,22.85
2019-04-05T05:39:12.097Z,23.22
2019-04-05T05:40:17.099Z,23.10
2019-04-05T05:41:21.589Z,24.10
2019-04-05T05:42:26.444Z,22.87
2019-04-05T05:43:31.187Z,23.32
2019-04-05T05:44:36.207Z,22.22
2019-04-05T05:45:40.751Z,22.45
2019-04-05T05:46:45.548Z,23.32
2019-04-05T05:47:52.087Z,23.50
2019-04-05T05:48:56.320Z,22.35
2019-04-05T05:50:00.943Z,21.55
2019-04-05T05:51:05.391Z,22.13
2019-04-05T05:52:10.464Z,21.87
2019-04-05T05:53:15.314Z,25.90
2019-04-05T05:54:19.761Z,26.80
2019-04-05T05:55:24.229Z,29.35
2019-04-05T05:56:28.985Z,37.23
2019-04-05T05:57:33.937Z,31.48
2019-04-05T05:58:39.651Z,28.57
2019-04-05T05:59:44.412Z,27.40
2019-04-05T06:00:48.877Z,24.72
2019-04-05T06:01:53.612Z,22.52
2019-04-05T06:02:58.384Z,22.70
2019-04-05T06:04:02.843Z,22.37
2019-04-05T06:05:07.449Z,22.00
2019-04-05T06:06:11.913Z,22.82
2019-04-05T06:07:16.451Z,22.58
2019-04-05T06:08:20.937Z,21.07
2019-04-05T06:09:25.681Z,23.52
2019-04-05T06:10:30.146Z,22.10
2019-04-05T06:11:34.601Z,22.07
2019-04-05T06:12:40.397Z,22.35
2019-04-05T06:13:45.216Z,21.85
2019-04-05T06:14:49.976Z,22.13
2019-04-05T06:15:54.445Z,22.75
2019-04-05T06:16:58.906Z,22.75
2019-04-05T06:18:04.801Z,22.93
2019-04-05T06:19:09.638Z,22.85
2019-04-05T06:20:17.308Z,22.22
2019-04-05T06:21:21.764Z,21.87
2019-04-05T06:22:26.235Z,22.20
2019-04-05T06:23:34.081Z,23.00
2019-04-05T06:24:37.202Z,22.55
2019-04-05T06:25:41.663Z,21.45
2019-04-05T06:26:46.133Z,20.43
2019-04-05T06:27:50.618Z,20.65
2019-04-05T06:28:55.214Z,21.00
2019-04-05T06:30:00.072Z,21.12
2019-04-05T06:31:04.893Z,21.20
2019-04-05T06:32:09.716Z,21.30
2019-04-05T06:33:14.196Z,21.45
2019-04-05T06:34:18.658Z,20.60
2019-04-05T06:35:23.454Z,21.57
2019-04-05T06:36:27.914Z,20.80
2019-04-05T06:37:32.379Z,20.77
2019-04-05T06:38:36.868Z,20.62
2019-04-05T06:39:41.330Z,19.98
2019-04-05T06:40:45.799Z,19.57
2019-04-05T06:41:50.264Z,19.50
2019-04-05T06:42:54.751Z,24.90
2019-04-05T06:43:59.211Z,21.57
2019-04-05T06:45:05.126Z,19.45
2019-04-05T06:46:09.674Z,19.77
2019-04-05T06:47:14.143Z,20.57
2019-04-05T06:48:19.818Z,20.45
2019-04-05T06:49:25.435Z,19.75
2019-04-05T06:50:30.252Z,20.00
2019-04-05T06:51:34.727Z,20.20
2019-04-05T06:52:39.189Z,20.05
2019-04-05T06:53:43.682Z,20.85
2019-04-05T06:54:48.207Z,20.10
2019-04-05T06:55:52.976Z,20.68
2019-04-05T06:56:57.440Z,19.98
2019-04-05T06:58:01.906Z,20.70
2019-04-05T06:59:06.399Z,19.60
2019-04-05T07:00:11.133Z,19.70
2019-04-05T07:01:15.676Z,20.12
2019-04-05T07:02:20.577Z,20.08
2019-04-05T07:03:26.663Z,19.87
2019-04-05T07:04:31.311Z,18.75
2019-04-05T07:05:35.756Z,20.08
2019-04-05T07:06:40.235Z,19.75
2019-04-05T07:07:44.720Z,18.70
2019-04-05T07:08:54.105Z,19.92
2019-04-05T07:09:55.469Z,19.57
2019-04-05T07:11:00.322Z,20.17
2019-04-05T07:12:04.867Z,19.67
2019-04-05T07:13:09.449Z,19.90
2019-04-05T07:14:14.152Z,20.37
2019-04-05T07:15:18.600Z,18.77
2019-04-05T07:16:23.136Z,19.70
2019-04-05T07:17:27.673Z,19.05
2019-04-05T07:18:36.010Z,19.60
2019-04-05T07:19:38.669Z,19.92
2019-04-05T07:20:43.214Z,20.62
2019-04-05T07:21:48.642Z,20.27
2019-04-05T07:22:53.183Z,19.95
2019-04-05T07:23:58.098Z,20.15
2019-04-05T07:25:02.718Z,21.75
2019-04-05T07:26:07.244Z,27.95
2019-04-05T07:27:11.716Z,20.52
2019-04-05T07:28:16.210Z,19.87
2019-04-05T07:29:20.700Z,20.15
2019-04-05T07:30:25.228Z,18.85
2019-04-05T07:31:29.987Z,18.57
2019-04-05T07:32:34.452Z,19.75
2019-04-05T07:33:38.939Z,19.32
2019-04-05T07:34:43.405Z,20.77
2019-04-05T07:35:48.242Z,20.48
2019-04-05T07:36:52.718Z,19.15
2019-04-05T07:37:57.175Z,18.95
2019-04-05T07:39:02.639Z,19.42
2019-04-05T07:40:08.310Z,19.95
2019-04-05T07:41:12.780Z,20.00
2019-04-05T07:42:17.242Z,19.12
2019-04-05T07:43:21.719Z,19.27
2019-04-05T07:44:27.173Z,18.92
2019-04-05T07:45:31.953Z,18.20
2019-04-05T07:46:36.683Z,18.65
2019-04-05T07:47:41.147Z,21.15
2019-04-05T07:48:45.730Z,23.40
2019-04-05T07:49:50.495Z,20.40
2019-04-05T07:50:54.952Z,19.87
2019-04-05T07:51:59.414Z,21.27
2019-04-05T07:53:03.950Z,24.95
2019-04-05T07:54:08.750Z,19.07
2019-04-05T07:55:13.347Z,19.32
2019-04-05T07:56:18.781Z,18.92
2019-04-05T07:57:23.244Z,19.70
2019-04-05T07:58:29.019Z,19.55
2019-04-05T07:59:33.496Z,19.98
2019-04-05T08:00:49.991Z,19.67
2019-04-05T08:01:54.447Z,18.75
2019-04-05T08:02:58.910Z,19.17
2019-04-05T08:04:03.760Z,19.87
2019-04-05T08:05:08.766Z,19.87
2019-04-05T08:06:13.367Z,19.87
2019-04-05T08:07:19.662Z,20.15
2019-04-05T08:08:39.123Z,19.45
2019-04-05T08:09:43.678Z,20.92
2019-04-05T08:10:48.208Z,21.00
2019-04-05T08:11:52.740Z,20.97
2019-04-05T08:12:58.539Z,20.62
2019-04-05T08:14:03.748Z,19.85
2019-04-05T08:15:10.421Z,20.15
2019-04-05T08:16:14.961Z,21.12
2019-04-05T08:17:19.421Z,21.55
2019-04-05T08:18:23.887Z,21.35
2019-04-05T08:19:28.382Z,20.25
2019-04-05T08:20:32.845Z,21.25
2019-04-05T08:21:37.319Z,21.17
2019-04-05T08:22:41.783Z,21.30
2019-04-05T08:23:46.248Z,21.02
2019-04-05T08:24:50.732Z,21.40
2019-04-05T08:25:55.263Z,22.07
2019-04-05T08:26:59.735Z,21.85
2019-04-05T08:28:06.746Z,22.52
2019-04-05T08:29:10.982Z,25.92
2019-04-05T08:30:16.058Z,26.50
2019-04-05T08:31:20.527Z,30.02
2019-04-05T08:32:25.392Z,28.92
2019-04-05T08:33:29.854Z,28.52
2019-04-05T08:34:34.370Z,29.90
2019-04-05T08:35:38.828Z,29.50
2019-04-05T08:36:43.295Z,28.70
2019-04-05T08:37:47.753Z,31.37
2019-04-05T08:38:52.221Z,32.17
2019-04-05T08:39:57.081Z,32.90
2019-04-05T08:41:01.540Z,32.63
2019-04-05T08:42:06.145Z,33.00
2019-04-05T08:43:10.896Z,33.15
2019-04-05T08:44:15.359Z,33.73
2019-04-05T08:45:19.983Z,35.50
2019-04-05T08:46:24.441Z,32.73
2019-04-05T08:47:28.911Z,34.10
2019-04-05T08:48:33.733Z,35.20
2019-04-05T08:49:38.216Z,35.88
2019-04-05T08:50:42.680Z,35.95
2019-04-05T08:51:47.534Z,37.65
2019-04-05T08:52:52.771Z,36.63
2019-04-05T08:53:57.241Z,36.90
2019-04-05T08:55:01.793Z,37.28
2019-04-05T08:56:06.731Z,38.02
2019-04-05T08:57:11.207Z,35.90
2019-04-05T08:58:15.695Z,38.15
2019-04-05T08:59:20.276Z,39.00
2019-04-05T09:00:25.382Z,40.28
2019-04-05T09:01:29.879Z,38.33
2019-04-05T09:02:34.717Z,38.80
2019-04-05T09:03:39.924Z,38.53
2019-04-05T09:04:44.396Z,39.33
2019-04-05T09:05:48.886Z,38.13
2019-04-05T09:06:53.343Z,39.58
2019-04-05T09:07:58.205Z,39.35
2019-04-05T09:09:03.322Z,41.13
2019-04-05T09:10:08.323Z,42.75
2019-04-05T09:11:12.868Z,42.27
2019-04-05T09:12:17.359Z,40.98
2019-04-05T09:13:22.196Z,43.25
2019-04-05T09:14:27.779Z,39.88
2019-04-05T09:15:32.414Z,41.13
2019-04-05T09:16:36.953Z,41.80
2019-04-05T09:17:41.432Z,41.88
2019-04-05T09:18:45.912Z,41.68
2019-04-05T09:19:50.375Z,41.58
2019-04-05T09:20:54.864Z,43.50
2019-04-05T09:21:59.704Z,42.80
2019-04-05T09:23:04.190Z,42.15
2019-04-05T09:24:09.065Z,44.25
2019-04-05T09:25:13.572Z,43.60
2019-04-05T09:26:18.396Z,43.52
2019-04-05T09:27:22.941Z,44.08
2019-04-05T09:28:29.029Z,43.60
2019-04-05T09:29:34.473Z,41.90
2019-04-05T09:30:39.308Z,43.83
2019-04-05T09:31:43.907Z,45.83
2019-04-05T09:32:48.382Z,45.65
2019-04-05T09:33:52.854Z,44.95
2019-04-05T09:34:57.321Z,44.85
2019-04-05T09:36:02.175Z,46.00
2019-04-05T09:37:06.995Z,44.42
2019-04-05T09:38:11.468Z,45.50
2019-04-05T09:39:16.032Z,45.55
2019-04-05T09:40:21.282Z,45.85
2019-04-05T09:41:25.845Z,47.43
2019-04-05T09:42:30.309Z,49.95
2019-04-05T09:43:34.770Z,48.80
2019-04-05T09:44:39.232Z,47.83
2019-04-05T09:45:43.720Z,48.42
2019-04-05T09:46:51.014Z,49.25
2019-04-05T09:47:54.420Z,48.70
2019-04-05T09:48:58.883Z,49.10
2019-04-05T09:50:04.723Z,50.10
2019-04-05T09:51:09.262Z,50.40
2019-04-05T09:52:13.670Z,48.35
2019-04-05T09:53:19.112Z,48.70
2019-04-05T09:54:23.904Z,49.05
2019-04-05T09:55:28.705Z,49.55
2019-04-05T09:56:33.190Z,50.45
2019-04-05T09:57:37.660Z,49.73
2019-04-05T09:58:42.117Z,51.05
2019-04-05T09:59:46.742Z,50.23
2019-04-05T10:00:51.705Z,49.73
2019-04-05T10:01:56.164Z,50.60
2019-04-05T10:03:00.689Z,51.05
2019-04-05T10:04:05.224Z,50.43
2019-04-05T10:05:09.759Z,49.50
2019-04-05T10:06:14.320Z,48.95
2019-04-05T10:07:19.190Z,49.48
2019-04-05T10:08:24.727Z,50.28
2019-04-05T10:09:29.196Z,48.23
2019-04-05T10:10:33.721Z,51.83
2019-04-05T10:11:38.227Z,50.48
2019-04-05T10:12:42.698Z,50.33
2019-04-05T10:13:47.151Z,51.45
2019-04-05T10:14:51.899Z,50.12
2019-04-05T10:15:56.390Z,52.73
2019-04-05T10:17:00.853Z,51.75
2019-04-05T10:18:05.495Z,52.35
2019-04-05T10:19:10.255Z,52.45
2019-04-05T10:20:14.965Z,53.08
2019-04-05T10:21:19.448Z,52.88
2019-04-05T10:22:23.978Z,54.18
2019-04-05T10:23:28.634Z,50.98
2019-04-05T10:24:33.268Z,50.43
2019-04-05T10:25:37.694Z,54.25
2019-04-05T10:26:43.256Z,53.00
2019-04-05T10:27:48.098Z,52.33
2019-04-05T10:28:52.937Z,54.18
2019-04-05T10:29:57.412Z,52.65
2019-04-05T10:31:01.894Z,54.38
2019-04-05T10:32:06.672Z,54.73
2019-04-05T10:33:11.483Z,54.83
2019-04-05T10:34:15.947Z,55.33
2019-04-05T10:35:20.808Z,55.83
2019-04-05T10:36:25.301Z,56.35
2019-04-05T10:37:29.762Z,52.95
2019-04-05T10:38:34.553Z,56.02
2019-04-05T10:39:39.021Z,56.70
2019-04-05T10:40:43.894Z,55.03
2019-04-05T10:41:48.713Z,55.60
2019-04-05T10:42:53.183Z,56.33
2019-04-05T10:43:58.583Z,55.40
2019-04-05T10:45:11.558Z,53.63
2019-04-05T10:46:16.040Z,52.95
2019-04-05T10:47:20.917Z,50.63
2019-04-05T10:48:25.711Z,53.83
2019-04-05T10:49:30.179Z,54.15
2019-04-05T10:50:34.925Z,53.60
2019-04-05T10:51:39.413Z,53.50
2019-04-05T10:52:43.883Z,54.35
2019-04-05T10:53:48.348Z,50.60
2019-04-05T10:54:53.198Z,53.00
2019-04-05T10:55:57.666Z,55.80
2019-04-05T10:57:02.162Z,52.85
2019-04-05T10:58:08.033Z,52.98
2019-04-05T10:59:12.501Z,52.08
2019-04-05T11:00:17.675Z,52.93
2019-04-05T11:01:22.231Z,53.63
2019-04-05T11:02:26.695Z,52.70
2019-04-05T11:03:31.556Z,52.03
2019-04-05T11:04:36.370Z,51.50
2019-04-05T11:05:41.194Z,53.70
2019-04-05T11:06:45.673Z,53.98
2019-04-05T11:07:50.208Z,52.73
2019-04-05T11:08:55.054Z,54.93
2019-04-05T11:09:59.501Z,53.05
2019-04-05T11:11:03.967Z,54.00
2019-04-05T11:12:09.494Z,52.40
2019-04-05T11:13:13.954Z,51.50
2019-04-05T11:14:18.428Z,53.78
2019-04-05T11:15:22.885Z,54.20
2019-04-05T11:16:27.548Z,55.48
2019-04-05T11:17:32.030Z,51.63
2019-04-05T11:18:36.815Z,53.17
2019-04-05T11:19:41.284Z,53.92
2019-04-05T11:20:48.800Z,52.73
2019-04-05T11:21:52.441Z,52.98
2019-04-05T11:22:58.409Z,50.60
2019-04-05T11:24:02.875Z,52.88
2019-04-05T11:25:08.372Z,51.83
2019-04-05T11:26:12.835Z,53.17
2019-04-05T11:27:17.689Z,50.43
2019-04-05T11:28:22.148Z,50.38
2019-04-05T11:29:26.626Z,51.00
2019-04-05T11:30:42.300Z,51.53
2019-04-05T11:31:56.932Z,50.58
2019-04-05T11:32:52.940Z,51.75
2019-04-05T11:33:58.307Z,51.90
2019-04-05T11:35:03.201Z,51.15
2019-04-05T11:36:08.627Z,51.92
2019-04-05T11:37:13.565Z,52.45
2019-04-05T11:38:18.800Z,53.35
2019-04-05T11:39:23.608Z,51.75
2019-04-05T11:40:28.425Z,52.48
2019-04-05T11:41:35.545Z,53.30
2019-04-05T11:42:40.873Z,51.90
2019-04-05T11:43:48.235Z,52.48
2019-04-05T11:44:55.797Z,52.55
2019-04-05T11:46:00.844Z,51.88
2019-04-05T11:47:05.499Z,55.00
2019-04-05T11:48:09.967Z,51.80
2019-04-05T11:49:15.079Z,50.55
2019-04-05T11:50:19.813Z,53.83
2019-04-05T11:51:24.349Z,52.58
2019-04-05T11:52:28.835Z,52.55
2019-04-05T11:53:33.642Z,52.30
2019-04-05T11:54:38.462Z,51.88
2019-04-05T11:55:46.289Z,51.08
2019-04-05T11:56:49.448Z,54.40
2019-04-05T11:57:54.877Z,51.45
2019-04-05T11:58:59.716Z,51.35
2019-04-05T12:00:20.953Z,51.35
2019-04-05T12:01:27.487Z,50.95
2019-04-05T12:02:39.273Z,53.92
2019-04-05T12:03:43.751Z,51.80
2019-04-05T12:04:48.214Z,51.08
2019-04-05T12:05:52.678Z,51.55
2019-04-05T12:06:57.145Z,52.93
2019-04-05T12:08:02.156Z,54.58
2019-04-05T12:09:08.864Z,52.08
2019-04-05T12:10:13.776Z,52.50
2019-04-05T12:11:18.608Z,52.43
2019-04-05T12:12:25.512Z,53.10
2019-04-05T12:13:29.250Z,51.45
2019-04-05T12:14:34.500Z,53.52
2019-04-05T12:15:39.885Z,53.42
2019-04-05T12:16:44.761Z,51.48
2019-04-05T12:17:49.520Z,53.25
2019-04-05T12:18:54.002Z,53.38
2019-04-05T12:20:00.592Z,52.10
2019-04-05T12:21:05.711Z,52.33
2019-04-05T12:22:10.362Z,51.98
2019-04-05T12:23:14.844Z,52.08
2019-04-05T12:24:19.305Z,50.92
2019-04-05T12:25:24.142Z,52.33
2019-04-05T12:26:28.765Z,50.03
2019-04-05T12:27:33.216Z,50.88
2019-04-05T12:28:37.697Z,48.63
2019-04-05T12:29:42.489Z,50.03
2019-04-05T12:30:48.515Z,49.63
2019-04-05T12:31:53.573Z,51.35
2019-04-05T12:32:58.093Z,48.75
2019-04-05T12:34:02.992Z,49.25
2019-04-05T12:35:08.696Z,49.53
2019-04-05T12:36:13.455Z,49.65
2019-04-05T12:37:17.924Z,50.05
2019-04-05T12:38:33.057Z,48.85
2019-04-05T12:39:37.850Z,49.58
2019-04-05T12:40:42.708Z,50.67
2019-04-05T12:41:48.551Z,54.45
2019-04-05T12:42:53.287Z,50.23
2019-04-05T12:43:57.875Z,47.67
2019-04-05T12:45:02.341Z,48.63
2019-04-05T12:46:06.983Z,47.83
2019-04-05T12:47:11.432Z,46.65
2019-04-05T12:48:16.643Z,47.78
2019-04-05T12:49:21.635Z,46.77
2019-04-05T12:50:26.456Z,45.30
2019-04-05T12:51:30.915Z,46.70
2019-04-05T12:52:35.377Z,45.50
2019-04-05T12:53:40.099Z,46.68
2019-04-05T12:54:44.565Z,45.65
2019-04-05T12:55:49.038Z,46.83
2019-04-05T12:56:54.274Z,45.78
2019-04-05T12:57:58.835Z,47.95
2019-04-05T12:59:03.680Z,46.50
2019-04-05T13:00:13.396Z,47.53
2019-04-05T13:01:17.518Z,46.83
2019-04-05T13:02:33.019Z,46.55
2019-04-05T13:03:28.168Z,46.13
2019-04-05T13:04:32.630Z,45.92
2019-04-05T13:05:37.096Z,46.23
2019-04-05T13:06:42.336Z,47.48
2019-04-05T13:07:46.902Z,46.95
2019-04-05T13:08:53.650Z,46.60
2019-04-05T13:09:57.776Z,45.98
2019-04-05T13:11:02.386Z,45.23
2019-04-05T13:12:06.842Z,46.80
2019-04-05T13:13:11.676Z,45.78
2019-04-05T13:14:16.183Z,45.08
2019-04-05T13:15:21.019Z,43.95
2019-04-05T13:16:25.473Z,43.45
2019-04-05T13:17:31.301Z,44.95
2019-04-05T13:18:36.591Z,44.65
2019-04-05T13:19:41.043Z,45.17
2019-04-05T13:20:45.508Z,44.70
2019-04-05T13:21:51.040Z,43.90
2019-04-05T13:22:55.795Z,44.15
2019-04-05T13:24:00.276Z,43.23
2019-04-05T13:25:10.687Z,45.67
2019-04-05T13:26:13.398Z,43.52
2019-04-05T13:27:17.866Z,43.25
2019-04-05T13:28:22.322Z,44.80
2019-04-05T13:29:26.806Z,42.80
2019-04-05T13:30:31.786Z,41.80
2019-04-05T13:31:36.248Z,45.90
2019-04-05T13:32:41.077Z,44.03
2019-04-05T13:33:45.564Z,43.75
2019-04-05T13:34:50.032Z,42.20
2019-04-05T13:35:54.602Z,43.13
2019-04-05T13:37:01.407Z,43.28
2019-04-05T13:38:06.008Z,42.48
2019-04-05T13:39:10.478Z,43.35
2019-04-05T13:40:15.428Z,41.65
2019-04-05T13:41:19.896Z,41.80
2019-04-05T13:42:24.669Z,41.02
2019-04-05T13:43:29.838Z,41.73
2019-04-05T13:44:36.042Z,41.90
2019-04-05T13:45:41.893Z,42.43
2019-04-05T13:46:46.355Z,40.40
2019-04-05T13:47:50.820Z,42.23
2019-04-05T13:48:55.286Z,41.80
2019-04-05T13:49:59.792Z,41.50
2019-04-05T13:51:07.088Z,42.95
2019-04-05T13:52:12.096Z,42.90
2019-04-05T13:53:16.585Z,41.73
2019-04-05T13:54:21.470Z,42.80
2019-04-05T13:55:25.926Z,42.83
2019-04-05T13:56:30.703Z,42.62
2019-04-05T13:57:35.172Z,42.53